Time;durP1;ratioP1;P1;durP2;ratioP2;P2;SDS_P1;SDS_P2;PMS_P1;PMS_P2;Temp;Humidity;BMP_temperature;BMP_pressure;BME280_temperature;BME280_humidity;BME280_pressure;Samples;Min_cycle;Max_cycle;Signal;HPM_P1;HPM_P2
2021/12/13 00:02:35;;;;;;;;;;;;;;;18.22;48.09;102338.81;5085497;28;19966;-45
2021/12/13 00:05:03;;;;;;;;;;;;;;;18.22;48.11;102336.13;5085801;28;19920;-49
2021/12/13 00:07:35;;;;;;;;;;;;;;;18.22;48.05;102332.53;5085884;28;19955;-50
2021/12/13 00:10:04;;;;;;;;;;;;;;;18.21;47.87;102338.91;5084911;28;20019;-49
2021/12/13 00:12:33;;;;;;;;;;;;;;;18.20;47.99;102338.06;5085703;28;19943;-49
2021/12/13 00:14:59;;;;;;;;;;;;;;;18.19;48.11;102325.59;5085144;28;19916;-45
2021/12/13 00:17:27;;;;;;;;;;;;;;;18.19;48.07;102331.00;5085576;28;19913;-51
2021/12/13 00:19:59;;;;;;;;;;;;;;;18.19;47.89;102333.69;5085105;28;19912;-51
2021/12/13 00:22:26;;;;;;;;;;;;;;;18.18;47.88;102336.47;5085143;28;19925;-48
2021/12/13 00:24:52;;;;;;;;;;;;;;;18.19;48.14;102340.91;5084932;28;19916;-46
2021/12/13 00:27:19;;;;;;;;;;;;;;;18.18;48.01;102344.56;5084891;28;19913;-50
2021/12/13 00:30:04;;;;;;;;;;;;;;;18.18;47.70;102345.44;5066544;28;19912;-49
2021/12/13 00:32:42;;;;;;;;;;;;;;;18.17;47.89;102342.84;5084981;28;19923;-50
2021/12/13 00:35:09;;;;;;;;;;;;;;;18.17;47.86;102343.69;5085226;28;19916;-49
2021/12/13 00:37:36;;;;;;;;;;;;;;;18.17;47.83;102342.84;5085117;28;19913;-47
2021/12/13 00:40:01;;;;;;;;;;;;;;;18.16;47.88;102344.69;5084302;28;19942;-49
2021/12/13 00:42:29;;;;;;;;;;;;;;;18.16;47.75;102343.84;5084904;28;19920;-46
2021/12/13 00:44:59;;;;;;;;;;;;;;;18.15;47.94;102340.31;5084636;28;19912;-45
2021/12/13 00:47:25;;;;;;;;;;;;;;;18.15;47.76;102348.38;5085058;28;19913;-47
2021/12/13 00:49:54;;;;;;;;;;;;;;;18.16;47.88;102351.91;5084668;28;19920;-49
2021/12/13 00:52:19;;;;;;;;;;;;;;;18.15;47.75;102350.22;5084423;28;19917;-49
2021/12/13 00:54:45;;;;;;;;;;;;;;;18.14;47.95;102357.44;5084409;28;19996;-52
2021/12/13 00:57:32;;;;;;;;;;;;;;;18.13;47.80;102353.03;5084428;28;19925;-47
2021/12/13 01:00:04;;;;;;;;;;;;;;;18.14;48.02;102359.28;5083807;28;19972;-44
2021/12/13 01:02:45;;;;;;;;;;;;;;;18.14;47.79;102359.28;5064487;28;20007;-47
2021/12/13 01:05:16;;;;;;;;;;;;;;;18.12;47.86;102370.16;5064500;28;19928;-49
2021/12/13 01:08:00;;;;;;;;;;;;;;;18.11;47.97;102367.59;5064683;28;19917;-48
2021/12/13 01:10:44;;;;;;;;;;;;;;;18.11;47.70;102365.75;5063880;28;19932;-48
2021/12/13 01:13:12;;;;;;;;;;;;;;;18.10;47.93;102366.75;5064621;28;19978;-49
2021/12/13 01:15:46;;;;;;;;;;;;;;;18.11;47.86;102367.59;5063716;28;19919;-52
2021/12/13 01:18:23;;;;;;;;;;;;;;;18.09;47.76;102362.34;5064696;28;19924;-47
2021/12/13 01:21:02;;;;;;;;;;;;;;;18.08;47.85;102368.69;5063924;28;19912;-49
2021/12/13 01:23:41;;;;;;;;;;;;;;;18.09;47.65;102378.47;5073789;28;19917;-45
2021/12/13 01:28:49;;;;;;;;;;;;;;;18.08;47.70;102381.31;5086259;28;19920;-47
2021/12/13 01:31:25;;;;;;;;;;;;;;;18.08;47.68;102384.84;5083262;28;19912;-47
2021/12/13 01:33:51;;;;;;;;;;;;;;;18.07;47.93;102387.69;5084006;28;19924;-49
2021/12/13 01:36:20;;;;;;;;;;;;;;;18.06;47.69;102394.06;5081482;28;19961;-49
2021/12/13 01:38:48;;;;;;;;;;;;;;;18.07;47.68;102395.75;5084008;28;19919;-50
2021/12/13 01:41:27;;;;;;;;;;;;;;;18.06;47.76;102405.66;5082506;28;19943;-47
2021/12/13 01:43:57;;;;;;;;;;;;;;;18.05;47.94;102403.94;5084317;28;19969;-52
2021/12/13 01:46:23;;;;;;;;;;;;;;;18.05;47.85;102405.78;5083284;28;19912;-45
2021/12/13 01:48:49;;;;;;;;;;;;;;;18.04;47.91;102407.63;5083914;28;19947;-47
2021/12/13 01:51:16;;;;;;;;;;;;;;;18.04;47.83;102407.63;5083908;28;19947;-50
2021/12/13 01:53:42;;;;;;;;;;;;;;;18.04;47.98;102420.22;5083052;28;19921;-46
2021/12/13 01:56:10;;;;;;;;;;;;;;;18.03;47.92;102416.69;5083672;28;19919;-47
2021/12/13 01:58:41;;;;;;;;;;;;;;;18.03;47.71;102410.44;5083862;28;19913;-47
2021/12/13 02:01:16;;;;;;;;;;;;;;;18.03;47.85;102407.75;5082604;28;19917;-49
2021/12/13 02:03:47;;;;;;;;;;;;;;;18.01;47.70;102399.81;5084115;28;19923;-52
2021/12/13 02:06:14;;;;;;;;;;;;;;;18.01;47.86;102399.81;5083827;28;19912;-48
2021/12/13 02:08:39;;;;;;;;;;;;;;;18.01;47.93;102405.22;5083731;28;19913;-48
2021/12/13 02:11:04;;;;;;;;;;;;;;;18.01;47.70;102407.00;5083232;28;19931;-48
2021/12/13 02:13:37;;;;;;;;;;;;;;;18.00;47.91;102414.22;5085408;28;20030;-47
2021/12/13 02:18:49;;;;;;;;;;;;;;;17.97;47.79;102404.59;5087830;28;19920;-48
2021/12/13 02:21:18;;;;;;;;;;;;;;;17.97;47.75;102412.66;5087813;28;19919;-47
2021/12/13 02:23:46;;;;;;;;;;;;;;;17.96;47.90;102413.63;5087559;28;19916;-51
2021/12/13 02:26:11;;;;;;;;;;;;;;;17.96;47.87;102413.63;5087534;28;20001;-49
2021/12/13 02:28:38;;;;;;;;;;;;;;;17.96;47.76;102407.41;5087200;28;19913;-50
2021/12/13 02:31:19;;;;;;;;;;;;;;;17.95;47.68;102401.16;5086141;28;19917;-49
2021/12/13 02:33:49;;;;;;;;;;;;;;;17.94;47.72;102401.28;5086827;28;19970;-47
2021/12/13 02:36:16;;;;;;;;;;;;;;;17.94;47.74;102406.69;5087360;28;19912;-47
2021/12/13 02:38:41;;;;;;;;;;;;;;;17.93;47.83;102407.66;5087301;28;19912;-46
2021/12/13 02:41:07;;;;;;;;;;;;;;;17.92;47.96;102412.16;5087059;28;19912;-51
2021/12/13 02:43:34;;;;;;;;;;;;;;;17.91;47.85;102413.16;5087317;28;20301;-48
2021/12/13 02:45:59;;;;;;;;;;;;;;;17.92;47.77;102414.00;5086486;28;19918;-50
2021/12/13 02:48:41;;;;;;;;;;;;;;;17.90;47.77;102419.53;5087374;28;19956;-50
2021/12/13 02:51:09;;;;;;;;;;;;;;;17.90;47.74;102415.97;5086983;28;20384;-51
2021/12/13 02:53:36;;;;;;;;;;;;;;;17.89;47.75;102412.44;5086836;28;19923;-50
2021/12/13 02:56:02;;;;;;;;;;;;;;;17.89;47.74;102414.28;5086883;28;20546;-49
2021/12/13 02:58:28;;;;;;;;;;;;;;;17.88;47.95;102412.53;5086892;28;19919;-50
2021/12/13 03:01:02;;;;;;;;;;;;;;;17.87;47.82;102413.53;5085293;28;19920;-46
2021/12/13 03:03:29;;;;;;;;;;;;;;;17.86;47.94;102411.84;5086819;28;20406;-49
2021/12/13 03:05:55;;;;;;;;;;;;;;;17.85;47.88;102419.06;5086846;28;19927;-47
2021/12/13 03:08:26;;;;;;;;;;;;;;;17.84;47.76;102417.34;5086770;28;20030;-49
2021/12/13 03:10:53;;;;;;;;;;;;;;;17.84;48.00;102413.78;5085981;28;19982;-51
2021/12/13 03:13:18;;;;;;;;;;;;;;;17.84;47.69;102416.47;5086812;28;19925;-52
2021/12/13 03:15:47;;;;;;;;;;;;;;;17.83;47.88;102414.75;5086251;28;19913;-47
2021/12/13 03:18:16;;;;;;;;;;;;;;;17.82;47.92;102410.38;5068936;28;19938;-48
2021/12/13 03:20:54;;;;;;;;;;;;;;;17.82;47.76;102413.06;5068570;28;19972;-46
2021/12/13 03:23:24;;;;;;;;;;;;;;;17.82;47.91;102407.69;5086231;28;19912;-47
2021/12/13 03:26:14;;;;;;;;;;;;;;;17.81;47.90;102419.44;5067268;28;19908;-51
2021/12/13 03:28:57;;;;;;;;;;;;;;;17.80;47.84;102421.25;5078103;28;19919;-46
2021/12/13 03:31:25;;;;;;;;;;;;;;;17.80;47.82;102423.06;5085442;28;19991;-50
2021/12/13 03:33:50;;;;;;;;;;;;;;;17.79;47.74;102416.00;5086479;28;19962;-47
2021/12/13 03:36:17;;;;;;;;;;;;;;;17.79;47.70;102421.38;5086181;28;19912;-47
2021/12/13 03:38:45;;;;;;;;;;;;;;;17.77;47.96;102429.56;5086091;28;19912;-45
2021/12/13 03:41:12;;;;;;;;;;;;;;;17.77;47.81;102426.03;5085971;28;19975;-51
2021/12/13 03:43:43;;;;;;;;;;;;;;;17.76;47.87;102425.19;5086447;28;19927;-46
2021/12/13 03:46:10;;;;;;;;;;;;;;;17.75;47.81;102434.22;5084198;28;19980;-47
2021/12/13 03:48:35;;;;;;;;;;;;;;;17.76;47.72;102427.03;5086231;28;19912;-47
2021/12/13 03:51:02;;;;;;;;;;;;;;;17.74;47.73;102427.97;5085891;28;19923;-49
2021/12/13 03:53:29;;;;;;;;;;;;;;;17.73;47.89;102430.78;5085724;28;19916;-47
2021/12/13 03:56:02;;;;;;;;;;;;;;;17.74;47.81;102421.75;5085904;28;19912;-46
2021/12/13 03:58:27;;;;;;;;;;;;;;;17.72;47.91;102429.06;5089542;28;19913;-49
2021/12/13 04:00:54;;;;;;;;;;;;;;;17.72;47.71;102423.69;5066062;28;19921;-51
2021/12/13 04:03:20;;;;;;;;;;;;;;;17.71;47.83;102421.94;5065964;28;20313;-46
2021/12/13 04:05:45;;;;;;;;;;;;;;;17.70;47.73;102428.31;5065685;28;19913;-48
2021/12/13 04:08:11;;;;;;;;;;;;;;;17.70;47.73;102425.63;5065722;28;19932;-46
2021/12/13 04:10:38;;;;;;;;;;;;;;;17.68;47.68;102423.06;5064922;28;19987;-48
2021/12/13 04:13:10;;;;;;;;;;;;;;;17.68;47.88;102416.84;5065659;28;19963;-49
2021/12/13 04:16:01;;;;;;;;;;;;;;;17.68;47.71;102416.84;5064891;28;19912;-49
2021/12/13 04:19:35;;;;;;;;;;;;;;;17.68;47.91;102416.84;5065501;28;19921;-48
2021/12/13 04:21:43;;;;;;;;;;;;;;;17.67;47.86;102424.06;5052202;28;20011;-46
2021/12/13 04:24:10;;;;;;;;;;;;;;;17.66;47.71;102425.00;5065365;28;20024;-47
2021/12/13 04:26:37;;;;;;;;;;;;;;;17.66;47.80;102422.31;5065231;28;19920;-49
2021/12/13 04:29:02;;;;;;;;;;;;;;;17.67;47.78;102425.88;5078477;28;19993;-49
2021/12/13 04:31:30;;;;;;;;;;;;;;;17.65;47.88;102420.63;5084519;28;19966;-49
2021/12/13 04:33:57;;;;;;;;;;;;;;;17.66;47.92;102418.78;5085273;28;19924;-46
2021/12/13 04:36:24;;;;;;;;;;;;;;;17.65;47.71;102417.09;5084709;28;20561;-49
2021/12/13 04:38:52;;;;;;;;;;;;;;;17.66;47.88;102408.03;5084707;28;19919;-44
2021/12/13 04:41:24;;;;;;;;;;;;;;;17.64;47.85;102424.28;5084954;28;19920;-47
2021/12/13 04:43:53;;;;;;;;;;;;;;;17.64;47.82;102424.28;5085151;28;19912;-48
2021/12/13 04:46:19;;;;;;;;;;;;;;;17.64;47.83;102423.44;5084214;28;19917;-49
2021/12/13 04:48:44;;;;;;;;;;;;;;;17.62;47.94;102420.00;5066923;28;19961;-46
2021/12/13 04:51:16;;;;;;;;;;;;;;;17.63;47.92;102419.06;5083399;28;19985;-48
2021/12/13 04:53:42;;;;;;;;;;;;;;;17.62;47.87;102420.00;5084540;28;20054;-48
2021/12/13 04:56:10;;;;;;;;;;;;;;;17.62;47.75;102430.78;5084777;28;19912;-47
2021/12/13 04:58:36;;;;;;;;;;;;;;;17.61;47.64;102424.53;5084326;28;19919;-49
2021/12/13 05:01:03;;;;;;;;;;;;;;;17.61;47.74;102426.38;5083477;28;19916;-48
2021/12/13 05:03:31;;;;;;;;;;;;;;;17.61;47.71;102432.59;5084865;28;19999;-49
2021/12/13 05:06:00;;;;;;;;;;;;;;;17.60;47.91;102438.97;5084632;28;19913;-49
2021/12/13 05:08:25;;;;;;;;;;;;;;;17.59;47.92;102437.25;5084642;28;20024;-51
2021/12/13 05:10:51;;;;;;;;;;;;;;;17.59;47.80;102439.97;5084025;28;19947;-47
2021/12/13 05:13:20;;;;;;;;;;;;;;;17.59;47.84;102436.41;5084161;28;21297;-48
2021/12/13 05:15:59;;;;;;;;;;;;;;;17.59;47.69;102439.09;5083855;28;19956;-47
2021/12/13 05:18:25;;;;;;;;;;;;;;;17.59;47.78;102433.72;5084586;28;19919;-46
2021/12/13 05:21:10;;;;;;;;;;;;;;;17.59;47.86;102436.41;5084020;28;19916;-48
2021/12/13 05:23:46;;;;;;;;;;;;;;;17.59;47.84;102439.09;5084231;28;19919;-49
2021/12/13 05:26:12;;;;;;;;;;;;;;;17.58;47.72;102440.06;5084264;28;19948;-47
2021/12/13 05:28:39;;;;;;;;;;;;;;;17.58;47.93;102443.59;5065761;28;19912;-46
2021/12/13 05:31:09;;;;;;;;;;;;;;;17.57;47.73;102435.66;5083361;28;19943;-47
2021/12/13 05:33:36;;;;;;;;;;;;;;;17.57;47.71;102432.97;5083599;28;19916;-49
2021/12/13 05:36:04;;;;;;;;;;;;;;;17.57;47.86;102430.28;5084027;28;19968;-47
2021/12/13 05:38:31;;;;;;;;;;;;;;;17.57;47.85;102435.66;5082728;28;19920;-47
2021/12/13 05:40:57;;;;;;;;;;;;;;;17.56;47.88;102434.81;5083622;28;19936;-50
2021/12/13 05:43:23;;;;;;;;;;;;;;;17.56;47.91;102434.81;5084069;28;19939;-50
2021/12/13 05:45:51;;;;;;;;;;;;;;;17.56;47.94;102433.97;5067895;28;20007;-50
2021/12/13 05:48:21;;;;;;;;;;;;;;;17.54;47.95;102436.75;5063280;28;19919;-48
2021/12/13 05:50:48;;;;;;;;;;;;;;;17.55;47.86;102437.63;5063441;28;20063;-49
2021/12/13 05:53:18;;;;;;;;;;;;;;;17.56;47.84;102437.50;5063833;28;19921;-46
2021/12/13 05:55:52;;;;;;;;;;;;;;;17.55;47.88;102437.63;5068488;28;19939;-48
2021/12/13 05:58:29;;;;;;;;;;;;;;;17.56;48.01;102445.56;5083093;28;19918;-51
2021/12/13 06:00:54;;;;;;;;;;;;;;;17.56;47.90;102444.72;5081164;28;20393;-48
2021/12/13 06:03:19;;;;;;;;;;;;;;;17.56;48.08;102447.41;5045845;28;19927;-49
2021/12/13 06:05:51;;;;;;;;;;;;;;;17.56;47.94;102448.25;5055760;28;19924;-49
2021/12/13 06:08:21;;;;;;;;;;;;;;;17.56;48.02;102444.72;5080985;28;19919;-49
2021/12/13 06:10:46;;;;;;;;;;;;;;;17.56;48.18;102453.63;5071706;28;19920;-48
2021/12/13 06:13:14;;;;;;;;;;;;;;;17.56;48.24;102450.09;5080220;28;19920;-48
2021/12/13 06:15:40;;;;;;;;;;;;;;;17.56;48.08;102450.09;5047368;28;19913;-49
2021/12/13 06:18:07;;;;;;;;;;;;;;;17.56;48.26;102458.16;5072458;28;19962;-52
2021/12/13 06:20:42;;;;;;;;;;;;;;;17.56;48.21;102450.94;5082128;28;20385;-50
2021/12/13 06:23:08;;;;;;;;;;;;;;;17.56;48.29;102450.94;5083624;28;19997;-51
2021/12/13 06:25:34;;;;;;;;;;;;;;;17.56;48.13;102448.25;5083192;28;20269;-46
2021/12/13 06:27:59;;;;;;;;;;;;;;;17.56;48.39;102450.94;5083570;28;19943;-46
2021/12/13 06:30:26;;;;;;;;;;;;;;;17.56;48.38;102460.84;5082400;28;19955;-50
2021/12/13 06:33:11;;;;;;;;;;;;;;;17.56;48.20;102455.47;5082744;28;19924;-52
2021/12/13 06:35:39;;;;;;;;;;;;;;;17.56;48.44;102460.84;5083379;28;19924;-50
2021/12/13 06:38:20;;;;;;;;;;;;;;;17.55;48.33;102465.38;5083688;28;20381;-49
2021/12/13 06:40:55;;;;;;;;;;;;;;;17.54;48.55;102469.03;5082944;28;19966;-48
2021/12/13 06:43:38;;;;;;;;;;;;;;;17.55;48.55;102473.44;5083805;28;19913;-50
2021/12/13 06:46:06;;;;;;;;;;;;;;;17.54;48.31;102468.16;5082725;28;19913;-50
2021/12/13 06:48:36;;;;;;;;;;;;;;;17.55;48.55;102468.06;5083523;28;19987;-51
2021/12/13 06:51:02;;;;;;;;;;;;;;;17.55;48.58;102473.44;5082861;28;19916;-48
2021/12/13 06:53:27;;;;;;;;;;;;;;;17.55;48.44;102472.59;5082863;28;19942;-48
2021/12/13 06:55:52;;;;;;;;;;;;;;;17.55;48.48;102470.75;5083019;28;20046;-48
2021/12/13 06:58:20;;;;;;;;;;;;;;;17.56;48.51;102474.31;5083113;28;20369;-51
2021/12/13 07:00:46;;;;;;;;;;;;;;;17.55;48.75;102480.66;5085411;28;19912;-49
2021/12/13 07:03:16;;;;;;;;;;;;;;;17.55;48.54;102486.91;5086531;28;19942;-48
2021/12/13 07:05:49;;;;;;;;;;;;;;;17.56;48.65;102482.38;5086987;28;19912;-50
2021/12/13 07:08:24;;;;;;;;;;;;;;;17.56;48.65;102485.06;5087071;28;20199;-47
2021/12/13 07:10:51;;;;;;;;;;;;;;;17.55;48.61;102484.22;5085911;28;19920;-44
2021/12/13 07:13:19;;;;;;;;;;;;;;;17.55;48.61;102488.72;5086767;28;19921;-49
2021/12/13 07:15:50;;;;;;;;;;;;;;;17.54;48.75;102485.16;5085694;28;19913;-46
2021/12/13 07:18:17;;;;;;;;;;;;;;;17.54;48.61;102487.84;5086686;28;19920;-46
2021/12/13 07:20:42;;;;;;;;;;;;;;;17.53;48.78;102488.84;5086172;28;19917;-46
2021/12/13 07:23:07;;;;;;;;;;;;;;;17.55;48.78;102494.97;5086486;28;19959;-48
2021/12/13 07:25:37;;;;;;;;;;;;;;;17.54;48.80;102492.38;5086086;28;19913;-46
2021/12/13 07:28:02;;;;;;;;;;;;;;;17.56;48.55;102495.81;5086485;28;19960;-49
2021/12/13 07:30:29;;;;;;;;;;;;;;;17.56;48.78;102495.81;5067333;28;19913;-49
2021/12/13 07:32:58;;;;;;;;;;;;;;;17.58;48.69;102497.38;5084994;28;21029;-48
2021/12/13 07:35:23;;;;;;;;;;;;;;;17.59;48.54;102501.81;5072805;28;19932;-47
2021/12/13 07:37:56;;;;;;;;;;;;;;;17.62;48.48;102509.63;5077415;28;19924;-49
2021/12/13 07:40:36;;;;;;;;;;;;;;;17.64;48.72;102506.84;5073155;28;19928;-48
2021/12/13 07:43:10;;;;;;;;;;;;;;;17.64;48.60;102507.69;5085582;28;20292;-48
2021/12/13 07:45:54;;;;;;;;;;;;;;;17.65;48.50;102508.53;5079147;28;19920;-47
2021/12/13 07:48:19;;;;;;;;;;;;;;;17.66;48.54;102511.09;5084914;28;19945;-48
2021/12/13 07:50:45;;;;;;;;;;;;;;;17.66;48.42;102516.47;5070802;28;19920;-49
2021/12/13 07:53:12;;;;;;;;;;;;;;;17.68;48.56;102521.75;5070234;28;19963;-49
2021/12/13 07:55:41;;;;;;;;;;;;;;;17.67;48.51;102523.59;5076254;28;19966;-49
2021/12/13 07:58:06;;;;;;;;;;;;;;;17.67;48.47;102522.69;5071012;28;19912;-52
2021/12/13 08:00:37;;;;;;;;;;;;;;;17.68;48.46;102524.44;5072355;28;20042;-53
2021/12/13 08:03:07;;;;;;;;;;;;;;;17.68;48.44;102521.75;5085183;28;19996;-49
2021/12/13 08:05:40;;;;;;;;;;;;;;;17.67;48.44;102523.59;5084780;28;19928;-47
2021/12/13 08:08:07;;;;;;;;;;;;;;;17.69;48.18;102529.69;5073545;28;19921;-50
2021/12/13 08:10:42;;;;;;;;;;;;;;;17.69;48.41;102527.00;5064097;28;19961;-49
2021/12/13 08:13:11;;;;;;;;;;;;;;;17.71;48.24;102529.56;5065393;28;20175;-49
2021/12/13 08:15:41;;;;;;;;;;;;;;;17.71;48.21;102532.25;5080003;28;19923;-51
2021/12/13 08:18:11;;;;;;;;;;;;;;;17.71;48.38;102533.13;5085635;28;20008;-47
2021/12/13 08:20:40;;;;;;;;;;;;;;;17.70;48.22;102520.63;5085416;28;20022;-48
2021/12/13 08:23:09;;;;;;;;;;;;;;;17.71;48.31;102530.44;5085374;28;20010;-52
2021/12/13 08:25:35;;;;;;;;;;;;;;;17.70;48.34;102528.69;5083618;28;19938;-50
2021/12/13 08:28:03;;;;;;;;;;;;;;;17.71;48.21;102534.94;5084938;28;19923;-50
2021/12/13 08:30:33;;;;;;;;;;;;;;;17.70;48.12;102523.31;5084276;28;19923;-60
2021/12/13 08:33:00;;;;;;;;;;;;;;;17.70;48.30;102520.63;5085031;28;19951;-47
2021/12/13 08:35:25;;;;;;;;;;;;;;;17.72;48.34;102528.59;5085060;28;19912;-48
2021/12/13 08:37:57;;;;;;;;;;;;;;;17.74;48.45;102526.66;5084910;28;20245;-50
2021/12/13 08:40:24;;;;;;;;;;;;;;;17.74;48.47;102522.13;5084476;28;19940;-49
2021/12/13 08:42:50;;;;;;;;;;;;;;;17.76;48.09;102531.94;5084592;28;19920;-47
2021/12/13 08:45:26;;;;;;;;;;;;;;;17.76;48.22;102532.78;5084279;28;19919;-52
2021/12/13 08:47:54;;;;;;;;;;;;;;;17.76;48.31;102531.94;5084927;28;19922;-51
2021/12/13 08:50:22;;;;;;;;;;;;;;;17.77;48.21;102533.66;5084667;28;19920;-50
2021/12/13 08:52:48;;;;;;;;;;;;;;;17.77;48.24;102533.66;5084397;28;19920;-50
2021/12/13 08:55:21;;;;;;;;;;;;;;;17.76;47.99;102538.19;5084410;28;19920;-52
2021/12/13 08:57:50;;;;;;;;;;;;;;;17.78;48.20;102540.72;5084680;28;19912;-52
2021/12/13 09:00:32;;;;;;;;;;;;;;;17.79;48.11;102542.44;5083604;28;19948;-52
2021/12/13 09:03:11;;;;;;;;;;;;;;;17.78;47.81;102554.19;5084491;28;19912;-53
2021/12/13 09:05:57;;;;;;;;;;;;;;;17.80;47.93;102558.47;5084431;28;19913;-51
2021/12/13 09:08:30;;;;;;;;;;;;;;;17.80;47.84;102555.78;5084080;28;19916;-51
2021/12/13 09:10:58;;;;;;;;;;;;;;;17.81;47.79;102562.03;5083795;28;19921;-48
2021/12/13 09:13:36;;;;;;;;;;;;;;;17.81;48.02;102562.03;5083649;28;19921;-48
2021/12/13 09:16:01;;;;;;;;;;;;;;;17.81;48.11;102562.88;5071588;28;19912;-47
2021/12/13 09:18:27;;;;;;;;;;;;;;;17.81;47.83;102564.72;5066265;28;19935;-48
2021/12/13 09:20:53;;;;;;;;;;;;;;;17.82;48.05;102566.41;5080733;28;19939;-45
2021/12/13 09:23:20;;;;;;;;;;;;;;;17.81;48.13;102570.94;5070039;28;19948;-47
2021/12/13 09:25:50;;;;;;;;;;;;;;;17.81;48.11;102570.94;5070405;28;19916;-50
2021/12/13 09:28:22;;;;;;;;;;;;;;;17.82;48.07;102578.03;5077467;28;19935;-48
2021/12/13 09:30:53;;;;;;;;;;;;;;;17.84;48.09;102585.97;5079529;28;19919;-51
2021/12/13 09:33:18;;;;;;;;;;;;;;;17.84;48.14;102586.84;5078846;28;19959;-51
2021/12/13 09:35:51;;;;;;;;;;;;;;;17.85;47.90;102593.94;5083563;28;20576;-48
2021/12/13 09:38:27;;;;;;;;;;;;;;;17.86;47.95;102592.09;5078601;28;20123;-48
2021/12/13 09:40:59;;;;;;;;;;;;;;;17.87;48.14;102591.97;5063041;28;19972;-46
2021/12/13 09:43:32;;;;;;;;;;;;;;;17.87;47.83;102594.66;5079240;28;19966;-49
2021/12/13 09:45:57;;;;;;;;;;;;;;;17.89;47.93;102598.09;5080954;28;19960;-46
2021/12/13 09:48:24;;;;;;;;;;;;;;;17.89;47.99;102594.56;5082835;28;19913;-48
2021/12/13 09:50:51;;;;;;;;;;;;;;;17.90;48.06;102599.81;5083462;28;19963;-50
2021/12/13 09:53:20;;;;;;;;;;;;;;;17.91;48.15;102598.81;5083736;28;19939;-49
2021/12/13 09:55:47;;;;;;;;;;;;;;;17.92;48.06;102591.59;5083542;28;19988;-48
2021/12/13 09:58:15;;;;;;;;;;;;;;;17.92;48.03;102602.38;5083896;28;19927;-50
2021/12/13 10:00:43;;;;;;;;;;;;;;;17.93;48.17;102599.59;5083139;28;19935;-48
2021/12/13 10:03:10;;;;;;;;;;;;;;;17.93;48.07;102602.28;5083950;28;19912;-48
2021/12/13 10:05:37;;;;;;;;;;;;;;;17.94;48.00;102603.97;5083807;28;19913;-50
2021/12/13 10:08:04;;;;;;;;;;;;;;;17.95;47.83;102596.75;5083965;28;19962;-49
2021/12/13 10:10:34;;;;;;;;;;;;;;;17.95;47.97;102602.13;5082861;28;19924;-52
2021/12/13 10:13:02;;;;;;;;;;;;;;;17.95;48.17;102608.38;5083799;28;19921;-49
2021/12/13 10:15:39;;;;;;;;;;;;;;;17.96;48.04;102602.00;5083081;28;19912;-46
2021/12/13 10:18:08;;;;;;;;;;;;;;;17.97;47.98;102597.50;5084159;28;19919;-51
2021/12/13 10:20:39;;;;;;;;;;;;;;;17.97;47.88;102601.06;5082985;28;19924;-46
2021/12/13 10:23:06;;;;;;;;;;;;;;;17.98;48.04;102589.31;5083751;28;19928;-48
2021/12/13 10:25:33;;;;;;;;;;;;;;;17.99;48.02;102590.16;5083276;28;19916;-48
2021/12/13 10:27:59;;;;;;;;;;;;;;;18.00;47.98;102589.16;5084003;28;19912;-50
2021/12/13 10:30:27;;;;;;;;;;;;;;;18.01;47.87;102584.63;5082502;28;20545;-51
2021/12/13 10:32:53;;;;;;;;;;;;;;;18.03;47.92;102586.25;5083522;28;20015;-48
2021/12/13 10:35:23;;;;;;;;;;;;;;;18.04;47.81;102587.09;5086351;28;19987;-46
2021/12/13 10:37:52;;;;;;;;;;;;;;;18.04;47.75;102582.56;5087419;28;19916;-51
2021/12/13 10:40:19;;;;;;;;;;;;;;;18.07;47.79;102590.41;5086546;28;20697;-49
2021/12/13 10:42:46;;;;;;;;;;;;;;;18.09;47.79;102590.28;5087343;28;20007;-46
2021/12/13 10:45:17;;;;;;;;;;;;;;;18.10;47.70;102586.63;5086394;28;19982;-47
2021/12/13 10:47:44;;;;;;;;;;;;;;;18.12;47.62;102585.50;5087312;28;19988;-48
2021/12/13 10:50:11;;;;;;;;;;;;;;;18.14;47.75;102585.41;5087046;28;19913;-47
2021/12/13 10:52:39;;;;;;;;;;;;;;;18.14;47.42;102586.25;5087064;28;19987;-50
2021/12/13 10:55:09;;;;;;;;;;;;;;;18.16;47.50;102583.44;5086477;28;19991;-49
2021/12/13 10:57:36;;;;;;;;;;;;;;;18.16;47.65;102584.28;5067216;28;20000;-48
2021/12/13 11:00:05;;;;;;;;;;;;;;;18.17;47.49;102588.69;5072368;28;20439;-46
2021/12/13 11:02:33;;;;;;;;;;;;;;;18.18;47.44;102594.91;5086764;28;19925;-47
2021/12/13 11:05:09;;;;;;;;;;;;;;;18.18;47.50;102590.41;5086849;28;19920;-47
2021/12/13 11:07:34;;;;;;;;;;;;;;;18.19;47.91;102592.13;5086752;28;19912;-47
2021/12/13 11:09:59;;;;;;;;;;;;;;;18.19;47.85;102586.72;5085985;28;19942;-48
2021/12/13 11:12:27;;;;;;;;;;;;;;;18.18;47.70;102576.94;5086624;28;19924;-46
2021/12/13 11:14:53;;;;;;;;;;;;;;;18.20;47.72;102582.19;5086653;28;19916;-48
2021/12/13 11:17:20;;;;;;;;;;;;;;;18.20;47.67;102577.66;5082117;28;19920;-49
2021/12/13 11:19:47;;;;;;;;;;;;;;;18.21;47.80;102581.22;5082915;28;20075;-48
2021/12/13 11:22:15;;;;;;;;;;;;;;;18.22;47.67;102570.34;5082994;28;19913;-49
2021/12/13 11:24:41;;;;;;;;;;;;;;;18.23;47.87;102580.13;5065280;28;20003;-51
2021/12/13 11:27:08;;;;;;;;;;;;;;;18.26;47.87;102579.00;5074146;28;19917;-52
2021/12/13 11:29:34;;;;;;;;;;;;;;;18.30;48.13;102585.00;5081259;28;19913;-48
2021/12/13 11:32:05;;;;;;;;;;;;;;;18.31;47.87;102574.13;5076576;28;20003;-47
2021/12/13 11:34:39;;;;;;;;;;;;;;;18.34;48.16;102575.69;5073627;28;19931;-46
2021/12/13 11:37:11;;;;;;;;;;;;;;;18.35;47.97;102577.41;5075496;28;19968;-47
2021/12/13 11:39:54;;;;;;;;;;;;;;;18.37;48.23;102581.69;5074953;28;19912;-51
2021/12/13 11:42:38;;;;;;;;;;;;;;;18.40;47.96;102580.59;5081473;28;19913;-48
2021/12/13 11:45:12;;;;;;;;;;;;;;;18.42;47.95;102581.31;5083432;28;19916;-47
2021/12/13 11:47:40;;;;;;;;;;;;;;;18.43;48.07;102581.19;5089161;28;19960;-49
2021/12/13 11:50:20;;;;;;;;;;;;;;;18.44;47.83;102584.75;5080122;28;19919;-46
2021/12/13 11:53:04;;;;;;;;;;;;;;;18.46;47.72;102582.78;5082168;28;20352;-47
2021/12/13 11:55:35;;;;;;;;;;;;;;;18.48;48.08;102588.91;5080801;28;19940;-47
2021/12/13 11:58:01;;;;;;;;;;;;;;;18.48;47.87;102589.78;5079827;28;19912;-49
2021/12/13 12:00:32;;;;;;;;;;;;;;;18.49;47.87;102591.47;5080925;28;19963;-50
2021/12/13 12:03:16;;;;;;;;;;;;;;;18.49;48.03;102586.09;5080001;28;19923;-46
2021/12/13 12:06:03;;;;;;;;;;;;;;;18.52;48.05;102581.41;5081875;28;19919;-52
2021/12/13 12:08:47;;;;;;;;;;;;;;;18.53;47.95;102577.75;5081871;28;19913;-48
2021/12/13 12:11:30;;;;;;;;;;;;;;;18.55;47.90;102570.41;5080319;28;19920;-49
2021/12/13 12:14:03;;;;;;;;;;;;;;;18.58;48.18;102567.47;5083713;28;20373;-48
2021/12/13 12:16:29;;;;;;;;;;;;;;;18.60;47.85;102576.25;5078050;28;20850;-51
2021/12/13 12:18:56;;;;;;;;;;;;;;;18.61;47.95;102573.47;5081668;28;19919;-49
2021/12/13 12:21:36;;;;;;;;;;;;;;;18.62;47.88;102567.09;5081983;28;19931;-49
2021/12/13 12:24:14;;;;;;;;;;;;;;;18.65;47.74;102574.91;5062632;28;20387;-46
2021/12/13 12:26:40;;;;;;;;;;;;;;;18.66;47.98;102573.94;5080811;28;20373;-47
2021/12/13 12:29:08;;;;;;;;;;;;;;;18.68;47.77;102577.34;5081438;28;19916;-46
2021/12/13 12:31:38;;;;;;;;;;;;;;;18.69;48.00;102573.72;5082136;28;19923;-48
2021/12/13 12:34:03;;;;;;;;;;;;;;;18.71;47.95;102577.13;5083190;28;19972;-48
2021/12/13 12:36:43;;;;;;;;;;;;;;;18.73;47.79;102572.47;5082418;28;19912;-47
2021/12/13 12:39:27;;;;;;;;;;;;;;;18.76;47.86;102586.66;5062155;28;20006;-50
2021/12/13 12:42:03;;;;;;;;;;;;;;;18.67;47.90;102564.00;5080072;28;20401;-48
2021/12/13 12:44:32;;;;;;;;;;;;;;;18.79;47.96;102586.44;5064981;28;20011;-47
2021/12/13 12:46:58;;;;;;;;;;;;;;;18.81;47.92;102573.66;5081419;28;19965;-51
2021/12/13 12:49:24;;;;;;;;;;;;;;;18.82;47.85;102575.38;5082717;28;19974;-48
2021/12/13 12:51:50;;;;;;;;;;;;;;;18.83;47.82;102572.56;5082786;28;20479;-48
2021/12/13 12:54:16;;;;;;;;;;;;;;;18.85;47.92;102581.38;5065802;28;19924;-51
2021/12/13 12:56:49;;;;;;;;;;;;;;;18.86;47.62;102576.81;5049030;28;19912;-53